createdAt,value
2019-05-05T01:17:09.779Z,10.37
2019-05-05T01:20:04.053Z,11.53
2019-05-05T01:22:58.288Z,11.17
2019-05-05T01:25:59.509Z,10.20
2019-05-05T01:28:52.834Z,11.77
2019-05-05T01:32:07.596Z,10.60
2019-05-05T01:35:02.538Z,15.47
2019-05-05T01:38:04.777Z,11.10
2019-05-05T01:41:34.645Z,10.23
2019-05-05T01:44:30.247Z,8.63
2019-05-05T01:47:46.679Z,8.33
2019-05-05T01:50:54.432Z,8.60
2019-05-05T01:53:51.350Z,7.73
2019-05-05T01:56:45.317Z,11.87
2019-05-05T01:59:44.589Z,13.37
2019-05-05T02:02:47.274Z,8.00
2019-05-05T02:05:57.192Z,9.33
2019-05-05T02:09:05.162Z,8.97
2019-05-05T02:12:05.055Z,13.93
2019-05-05T02:15:04.897Z,9.00
2019-05-05T02:17:55.497Z,11.17
2019-05-05T02:21:07.143Z,11.33
2019-05-05T02:24:08.142Z,9.70
2019-05-05T02:27:05.169Z,9.10
2019-05-05T02:30:26.690Z,8.57
2019-05-05T02:33:31.773Z,9.07
2019-05-05T02:36:35.293Z,8.43
2019-05-05T02:39:39.289Z,8.43
2019-05-05T02:42:35.550Z,12.97
2019-05-05T02:45:35.075Z,7.67
2019-05-05T02:48:44.949Z,9.80
2019-05-05T02:51:55.209Z,7.77
2019-05-05T02:55:06.653Z,11.23
2019-05-05T02:58:13.932Z,13.83
2019-05-05T03:01:20.537Z,9.63
2019-05-05T03:04:25.374Z,8.23
2019-05-05T03:07:20.976Z,7.33
2019-05-05T03:10:14.972Z,12.50
2019-05-05T03:13:16.997Z,8.40
2019-05-05T03:16:28.595Z,9.30
2019-05-05T03:19:34.913Z,10.13
2019-05-05T03:22:34.101Z,10.73
2019-05-05T03:25:26.985Z,8.83
2019-05-05T03:28:20.744Z,14.97
2019-05-05T03:31:16.052Z,13.77
2019-05-05T03:34:01.087Z,10.27
2019-05-05T03:36:50.950Z,8.93
2019-05-05T03:39:45.733Z,9.50
2019-05-05T03:42:56.928Z,9.13
2019-05-05T03:46:04.506Z,11.83
2019-05-05T03:49:00.545Z,12.67
2019-05-05T03:51:54.313Z,10.17
2019-05-05T03:54:47.781Z,10.23
2019-05-05T03:57:34.827Z,12.03
2019-05-05T04:00:31.596Z,16.53
2019-05-05T04:03:29.786Z,14.97
2019-05-05T04:06:23.455Z,15.67
2019-05-05T04:09:17.695Z,14.03
2019-05-05T04:12:14.002Z,16.97
2019-05-05T04:15:10.329Z,16.87
2019-05-05T04:18:31.395Z,16.37
2019-05-05T04:21:33.210Z,17.30
2019-05-05T04:24:25.121Z,20.00
2019-05-05T04:27:23.882Z,17.90
2019-05-05T04:30:16.741Z,23.80
2019-05-05T04:33:15.915Z,20.63
2019-05-05T04:36:25.906Z,24.27
2019-05-05T04:39:41.616Z,24.17
2019-05-05T04:43:11.514Z,25.83
2019-05-05T04:46:14.227Z,24.70
2019-05-05T04:49:33.792Z,22.70
2019-05-05T04:52:36.597Z,28.20
2019-05-05T04:55:48.756Z,22.30
2019-05-05T04:59:00.391Z,29.17
2019-05-05T05:02:17.123Z,19.37
2019-05-05T05:05:46.351Z,19.10
2019-05-05T05:08:41.955Z,18.53
2019-05-05T05:11:38.965Z,21.10
2019-05-05T05:14:36.143Z,23.77
2019-05-05T05:17:35.843Z,33.53
2019-05-05T05:20:30.286Z,17.93
2019-05-05T05:23:44.222Z,18.77
2019-05-05T05:27:07.451Z,19.87
2019-05-05T05:30:24.116Z,22.53
2019-05-05T05:33:16.663Z,20.87
2019-05-05T05:36:08.838Z,20.80
2019-05-05T05:38:46.202Z,19.83
2019-05-05T05:41:49.177Z,17.53
2019-05-05T05:45:04.227Z,21.57
2019-05-05T05:47:56.891Z,21.67
2019-05-05T05:50:48.365Z,23.80
2019-05-05T05:53:26.620Z,16.77
2019-05-05T05:56:04.672Z,21.97
2019-05-05T05:58:38.366Z,20.00
2019-05-05T06:01:11.849Z,18.60
2019-05-05T06:03:45.397Z,21.57
2019-05-05T06:06:24.105Z,17.77
2019-05-05T06:09:10.213Z,23.70
2019-05-05T06:12:17.817Z,17.80
2019-05-05T06:15:07.804Z,18.97
2019-05-05T06:17:45.403Z,20.20
2019-05-05T06:20:25.502Z,20.93
2019-05-05T06:23:08.595Z,21.67
2019-05-05T06:25:55.218Z,21.00
2019-05-05T06:28:28.018Z,17.33
2019-05-05T06:31:01.452Z,16.77
2019-05-05T06:33:36.599Z,22.50
2019-05-05T06:36:09.530Z,18.83
2019-05-05T06:38:39.536Z,21.17
2019-05-05T06:41:34.221Z,20.60
2019-05-05T06:44:30.465Z,20.27
2019-05-05T06:47:26.772Z,29.30
2019-05-05T06:50:21.730Z,17.73
2019-05-05T06:53:06.100Z,14.57
2019-05-05T06:56:00.786Z,19.30
2019-05-05T06:58:42.014Z,12.63
2019-05-05T07:01:30.707Z,13.50
2019-05-05T07:04:21.167Z,17.20
2019-05-05T07:07:06.604Z,9.70
2019-05-05T07:10:09.013Z,7.10
2019-05-05T07:13:06.124Z,8.37
2019-05-05T07:16:00.707Z,8.43
2019-05-05T07:18:46.253Z,11.00
2019-05-05T07:21:38.351Z,13.07
2019-05-05T07:24:35.518Z,6.30
2019-05-05T07:27:26.134Z,14.83
2019-05-05T07:30:08.222Z,14.43
2019-05-05T07:33:01.819Z,12.03
2019-05-05T07:36:01.493Z,17.77
2019-05-05T07:38:54.751Z,14.73
2019-05-05T07:41:44.555Z,7.60
2019-05-05T07:44:28.402Z,8.50
2019-05-05T07:46:51.067Z,8.30
2019-05-05T07:49:24.571Z,9.77
2019-05-05T07:52:09.377Z,7.20
2019-05-05T07:54:56.019Z,13.00
2019-05-05T07:57:36.404Z,9.77
2019-05-05T08:00:17.163Z,9.63
2019-05-05T08:02:58.248Z,11.17
2019-05-05T08:06:05.171Z,7.77
2019-05-05T08:09:29.917Z,8.27
2019-05-05T08:12:30.176Z,7.60
2019-05-05T08:15:23.750Z,8.53
2019-05-05T08:18:15.133Z,7.43
2019-05-05T08:20:54.216Z,11.30
2019-05-05T08:24:04.631Z,8.43
2019-05-05T08:26:51.833Z,8.47
2019-05-05T08:29:35.123Z,6.53
2019-05-05T08:32:40.331Z,6.43
2019-05-05T08:35:39.043Z,10.43
2019-05-05T08:38:45.062Z,9.73
2019-05-05T08:41:57.493Z,8.27
2019-05-05T08:44:49.543Z,7.13
2019-05-05T08:47:48.502Z,4.93
2019-05-05T08:50:34.849Z,7.83
2019-05-05T08:53:24.180Z,5.07
2019-05-05T08:56:11.613Z,6.50
2019-05-05T08:59:07.851Z,2.70
2019-05-05T09:01:58.646Z,6.30
2019-05-05T09:04:50.698Z,7.63
2019-05-05T09:07:33.646Z,7.73
2019-05-05T09:10:23.663Z,3.60
2019-05-05T09:13:14.556Z,4.40
2019-05-05T09:16:07.296Z,2.73
2019-05-05T09:19:20.406Z,4.90
2019-05-05T09:22:01.972Z,4.90
2019-05-05T09:25:06.790Z,3.97
2019-05-05T09:28:16.317Z,5.73
2019-05-05T09:30:57.499Z,3.33
2019-05-05T09:33:40.242Z,5.50
2019-05-05T09:36:21.677Z,6.33
2019-05-05T09:38:55.363Z,4.37
2019-05-05T09:41:41.791Z,9.33
2019-05-05T09:44:24.318Z,3.93
2019-05-05T09:47:04.770Z,5.23
2019-05-05T09:49:38.873Z,4.70
2019-05-05T09:52:13.995Z,4.73
2019-05-05T09:54:47.031Z,2.27
2019-05-05T09:57:27.254Z,2.27
2019-05-05T10:00:25.744Z,3.17
2019-05-05T10:03:16.654Z,2.53
2019-05-05T10:06:14.251Z,1.57
2019-05-05T10:09:02.580Z,4.73
2019-05-05T10:11:57.785Z,4.50
2019-05-05T10:14:47.243Z,7.13
2019-05-05T10:17:33.818Z,4.27
2019-05-05T10:20:29.781Z,2.80
2019-05-05T10:23:14.949Z,5.70
2019-05-05T10:25:51.097Z,2.27
2019-05-05T10:28:30.288Z,5.17
2019-05-05T10:31:13.677Z,3.30
2019-05-05T10:33:56.127Z,5.70
2019-05-05T10:36:35.265Z,7.43
2019-05-05T10:39:10.606Z,4.50
2019-05-05T10:41:44.133Z,2.80
2019-05-05T10:44:21.105Z,4.87
2019-05-05T10:46:51.490Z,3.20
2019-05-05T10:49:24.409Z,2.83
2019-05-05T10:51:54.506Z,5.23
2019-05-05T10:54:25.415Z,2.63
2019-05-05T10:56:55.133Z,5.60
2019-05-05T10:59:31.267Z,3.07
2019-05-05T11:02:05.155Z,5.53
2019-05-05T11:04:37.331Z,4.63
2019-05-05T11:07:11.944Z,3.73
2019-05-05T11:09:47.748Z,6.20
2019-05-05T11:12:18.881Z,1.50
2019-05-05T11:14:50.920Z,2.23
2019-05-05T11:17:30.953Z,3.70
2019-05-05T11:20:00.388Z,3.23
2019-05-05T11:22:32.091Z,3.57
2019-05-05T11:25:06.959Z,3.17
2019-05-05T11:27:38.603Z,4.97
2019-05-05T11:30:17.461Z,3.93
2019-05-05T11:33:05.514Z,2.40
2019-05-05T11:35:49.064Z,2.50
2019-05-05T11:38:18.781Z,4.60
2019-05-05T11:40:54.693Z,1.60
2019-05-05T11:43:28.957Z,2.23
2019-05-05T11:45:59.643Z,3.07
2019-05-05T11:48:31.048Z,2.80
2019-05-05T11:51:01.843Z,3.77
2019-05-05T11:53:31.177Z,3.93
2019-05-05T11:56:00.549Z,3.00
2019-05-05T11:58:29.962Z,2.53
2019-05-05T12:00:59.305Z,6.00
2019-05-05T12:03:28.612Z,6.33
2019-05-05T12:05:58.446Z,4.93
2019-05-05T12:08:28.742Z,2.33
2019-05-05T12:11:00.363Z,5.90
2019-05-05T12:13:30.464Z,2.47
2019-05-05T12:16:04.546Z,4.00
2019-05-05T12:18:35.431Z,3.87
2019-05-05T12:21:05.979Z,4.33
2019-05-05T12:23:35.347Z,2.37
2019-05-05T12:26:26.627Z,8.90
2019-05-05T12:29:14.194Z,2.57
2019-05-05T12:31:49.998Z,4.43
2019-05-05T12:34:23.616Z,3.67
2019-05-05T12:36:57.356Z,2.20
2019-05-05T12:39:26.801Z,6.10
2019-05-05T12:41:59.295Z,4.93
2019-05-05T12:44:37.154Z,3.17
2019-05-05T16:15:10.356Z,3.30
2019-05-05T16:17:48.302Z,7.83
2019-05-05T16:20:24.343Z,3.10
2019-05-05T16:23:06.685Z,3.97
2019-05-05T16:25:36.428Z,1.67
2019-05-05T16:28:05.765Z,6.70
2019-05-05T16:30:35.183Z,4.67
2019-05-05T16:33:04.507Z,5.40
2019-05-05T16:35:34.273Z,3.73
2019-05-05T16:38:06.522Z,10.47
2019-05-05T16:40:37.345Z,4.73
2019-05-05T16:43:06.623Z,3.23
2019-05-05T16:45:38.348Z,4.43
2019-05-05T16:48:07.992Z,7.77
2019-05-05T16:50:37.313Z,3.67
2019-05-05T16:53:06.794Z,4.83
2019-05-05T16:55:56.338Z,4.87
2019-05-05T16:58:25.600Z,4.30
2019-05-05T17:00:55.252Z,5.47
2019-05-05T17:03:26.632Z,9.03
2019-05-05T17:05:58.260Z,3.77
2019-05-05T17:08:27.657Z,5.60
2019-05-05T17:10:56.999Z,8.57
2019-05-05T17:13:39.065Z,4.07
2019-05-05T17:16:39.202Z,8.97
2019-05-05T17:19:25.253Z,3.60
2019-05-05T17:22:11.805Z,5.63
2019-05-05T17:24:41.238Z,7.13
2019-05-05T17:27:13.916Z,7.47
2019-05-05T17:29:46.212Z,6.13
2019-05-05T17:32:15.490Z,8.23
2019-05-05T17:34:44.984Z,9.63
2019-05-05T17:37:14.362Z,10.47
2019-05-05T17:39:50.464Z,5.90
2019-05-05T17:42:50.651Z,6.40
2019-05-05T17:45:47.941Z,9.87
2019-05-05T17:48:33.059Z,6.43
2019-05-05T17:51:24.533Z,11.03
2019-05-05T17:54:12.755Z,7.13
2019-05-05T17:56:43.224Z,10.97
2019-05-05T17:59:14.087Z,12.17
2019-05-05T18:01:44.851Z,8.07
2019-05-05T18:04:16.677Z,8.43
2019-05-05T18:06:51.024Z,6.27
2019-05-05T18:09:40.890Z,11.93
2019-05-05T18:12:35.004Z,9.93
2019-05-05T18:15:05.619Z,7.30
2019-05-05T18:17:35.244Z,12.10
2019-05-05T18:20:05.224Z,7.13
2019-05-05T18:22:34.480Z,12.23
2019-05-05T18:25:05.032Z,8.60
2019-05-05T18:27:34.483Z,9.50
2019-05-05T18:30:04.325Z,11.40
2019-05-05T18:32:34.896Z,9.23
2019-05-05T18:35:06.614Z,11.73
2019-05-05T18:37:35.646Z,8.27
2019-05-05T18:40:05.970Z,6.47
2019-05-05T18:42:35.487Z,16.60
2019-05-05T18:45:10.342Z,18.67
2019-05-05T18:47:40.004Z,11.97
2019-05-05T18:50:09.311Z,12.37
2019-05-05T18:52:40.908Z,5.73
2019-05-05T18:55:12.275Z,11.13
2019-05-05T18:57:43.371Z,9.33
2019-05-05T19:00:14.957Z,11.33
2019-05-05T19:02:56.698Z,9.57
2019-05-05T19:05:48.904Z,11.97
2019-05-05T19:08:24.569Z,7.90
2019-05-05T19:10:54.263Z,12.83
2019-05-05T19:13:25.667Z,10.57
2019-05-05T19:15:54.950Z,8.17
2019-05-05T19:18:25.564Z,13.30
2019-05-05T19:21:24.875Z,9.70
2019-05-05T19:23:55.580Z,6.80
2019-05-05T19:26:27.946Z,7.37
2019-05-05T19:28:57.251Z,10.27
2019-05-05T19:31:26.598Z,12.67
2019-05-05T19:33:56.068Z,9.47
2019-05-05T19:36:27.515Z,15.67
2019-05-05T19:38:56.758Z,9.17
2019-05-05T19:41:26.080Z,21.73
2019-05-05T19:43:55.413Z,16.13
2019-05-05T19:46:31.154Z,15.73
2019-05-05T19:49:16.789Z,12.13
2019-05-05T19:51:46.688Z,12.20
2019-05-05T19:54:16.060Z,9.70
2019-05-05T19:56:45.882Z,13.47
2019-05-05T19:59:18.518Z,14.47
2019-05-05T20:01:47.805Z,12.47
2019-05-05T20:04:17.180Z,9.10
2019-05-05T20:06:48.389Z,10.73
2019-05-05T20:09:18.703Z,8.83
2019-05-05T20:11:48.023Z,12.63
2019-05-05T20:14:17.371Z,9.93
2019-05-05T20:17:05.592Z,13.77
2019-05-05T20:19:43.791Z,11.20
2019-05-05T20:22:14.630Z,10.93
2019-05-05T20:24:44.329Z,10.43
2019-05-05T20:27:16.440Z,6.43
2019-05-05T20:29:45.858Z,9.50
2019-05-05T20:32:17.302Z,8.40
2019-05-05T20:35:04.300Z,9.87
2019-05-05T20:37:44.696Z,8.90
2019-05-05T20:40:15.756Z,9.37
2019-05-05T20:42:45.098Z,7.70
2019-05-05T20:45:17.262Z,13.63
2019-05-05T20:47:46.685Z,9.37
2019-05-05T20:50:18.099Z,13.07
2019-05-05T20:52:47.451Z,9.87
2019-05-05T20:55:16.815Z,13.77
2019-05-05T20:57:48.458Z,9.30
2019-05-05T21:00:18.389Z,9.70
2019-05-05T21:02:47.732Z,12.23
2019-05-05T21:05:17.447Z,8.43
2019-05-05T21:07:47.162Z,11.47
2019-05-05T21:10:17.221Z,9.43
2019-05-05T21:12:46.968Z,13.30
2019-05-05T21:15:16.360Z,8.90
2019-05-05T21:17:45.838Z,13.93
2019-05-05T21:20:15.346Z,11.67
2019-05-05T21:23:04.959Z,17.57
2019-05-05T21:25:36.755Z,18.17
2019-05-05T21:28:06.146Z,9.87
2019-05-05T21:30:35.875Z,9.83
2019-05-05T21:33:07.025Z,13.67
2019-05-05T21:35:37.187Z,16.87
2019-05-05T21:38:07.468Z,8.07
2019-05-05T21:40:36.794Z,13.10
2019-05-05T21:43:06.420Z,20.03
2019-05-05T21:45:35.777Z,14.80
2019-05-05T21:48:05.104Z,8.47
2019-05-05T21:50:40.137Z,12.83
2019-05-05T21:53:24.686Z,14.40
2019-05-05T21:56:16.195Z,6.57
2019-05-05T21:58:48.144Z,9.13
2019-05-05T22:01:19.465Z,9.57
2019-05-05T22:03:48.777Z,15.93
2019-05-05T22:06:18.063Z,10.70
2019-05-05T22:08:49.415Z,10.37
2019-05-05T22:11:18.740Z,25.43
2019-05-05T22:13:48.063Z,9.50
2019-05-05T22:16:19.379Z,14.43
2019-05-05T22:18:48.705Z,11.23
2019-05-05T22:21:30.375Z,14.13
2019-05-05T22:24:35.670Z,14.37
2019-05-05T22:27:05.958Z,16.00
2019-05-05T22:29:35.569Z,15.33
2019-05-05T22:32:08.108Z,13.03
2019-05-05T22:34:38.211Z,18.23
2019-05-05T22:37:09.758Z,10.10
2019-05-05T22:39:39.346Z,19.63
2019-05-05T22:42:08.925Z,8.43
2019-05-05T22:44:38.207Z,12.27
2019-05-05T22:47:07.535Z,10.77
2019-05-05T22:49:36.884Z,11.27
2019-05-05T22:52:06.191Z,9.60
2019-05-05T22:54:35.479Z,8.03
2019-05-05T22:57:04.774Z,14.23
2019-05-05T22:59:34.397Z,19.77
2019-05-05T23:02:04.116Z,12.47
2019-05-05T23:04:43.820Z,9.47
2019-05-05T23:07:19.424Z,12.43
2019-05-05T23:09:48.684Z,10.63
2019-05-05T23:12:18.708Z,11.83
2019-05-05T23:14:47.969Z,14.93
2019-05-05T23:17:39.300Z,16.03
2019-05-05T23:20:24.613Z,10.03
2019-05-05T23:23:10.786Z,16.83
2019-05-05T23:25:45.766Z,11.90
2019-05-05T23:28:17.098Z,12.90
2019-05-05T23:30:46.118Z,15.27
2019-05-05T23:33:15.398Z,8.00
2019-05-05T23:35:44.710Z,19.07
2019-05-05T23:38:14.439Z,15.50
2019-05-05T23:40:44.097Z,14.87
2019-05-05T23:43:13.941Z,10.73
2019-05-05T23:45:44.840Z,13.30
2019-05-05T23:48:14.513Z,10.93
2019-05-05T23:50:44.571Z,16.27
2019-05-05T23:53:14.368Z,13.20
2019-05-05T23:55:46.459Z,11.57
2019-05-05T23:58:15.719Z,13.33
